sensor_id;sensor_type;location;lat;lon;timestamp;P1;durP1;ratioP1;P2;durP2;ratioP2
77451;SDS011;66537;52.370;4.832;2023-09-08T00:02:02;13.57;;;7.28;;
77451;SDS011;66537;52.370;4.832;2023-09-08T00:04:27;12.60;;;7.22;;
77451;SDS011;66537;52.370;4.832;2023-09-08T00:06:53;12.90;;;7.90;;
77451;SDS011;66537;52.370;4.832;2023-09-08T00:09:18;13.52;;;7.00;;
77451;SDS011;66537;52.370;4.832;2023-09-08T00:11:43;13.38;;;7.35;;
77451;SDS011;66537;52.370;4.832;2023-09-08T00:14:09;12.52;;;6.55;;
77451;SDS011;66537;52.370;4.832;2023-09-08T00:16:34;13.67;;;7.57;;
77451;SDS011;66537;52.370;4.832;2023-09-08T00:18:59;13.93;;;6.97;;
77451;SDS011;66537;52.370;4.832;2023-09-08T00:21:25;13.15;;;6.68;;
77451;SDS011;66537;52.370;4.832;2023-09-08T00:23:51;16.83;;;8.90;;
77451;SDS011;66537;52.370;4.832;2023-09-08T00:26:17;15.73;;;8.27;;
77451;SDS011;66537;52.370;4.832;2023-09-08T00:28:43;15.23;;;8.40;;
77451;SDS011;66537;52.370;4.832;2023-09-08T00:31:08;11.63;;;7.30;;
77451;SDS011;66537;52.370;4.832;2023-09-08T00:33:33;14.63;;;8.37;;
77451;SDS011;66537;52.370;4.832;2023-09-08T00:35:59;13.88;;;8.20;;
77451;SDS011;66537;52.370;4.832;2023-09-08T00:38:24;15.73;;;8.10;;
77451;SDS011;66537;52.370;4.832;2023-09-08T00:40:49;14.75;;;7.88;;
77451;SDS011;66537;52.370;4.832;2023-09-08T00:43:16;12.73;;;7.35;;
77451;SDS011;66537;52.370;4.832;2023-09-08T00:45:42;14.23;;;8.35;;
77451;SDS011;66537;52.370;4.832;2023-09-08T00:48:08;12.55;;;8.02;;
77451;SDS011;66537;52.370;4.832;2023-09-08T00:50:35;14.30;;;9.35;;
77451;SDS011;66537;52.370;4.832;2023-09-08T00:53:02;14.75;;;7.35;;
77451;SDS011;66537;52.370;4.832;2023-09-08T00:55:28;12.50;;;7.90;;
77451;SDS011;66537;52.370;4.832;2023-09-08T00:57:54;18.88;;;9.30;;
77451;SDS011;66537;52.370;4.832;2023-09-08T01:00:20;15.85;;;8.90;;
77451;SDS011;66537;52.370;4.832;2023-09-08T01:02:45;21.63;;;8.48;;
77451;SDS011;66537;52.370;4.832;2023-09-08T01:05:11;16.23;;;8.00;;
77451;SDS011;66537;52.370;4.832;2023-09-08T01:07:37;16.35;;;8.75;;
77451;SDS011;66537;52.370;4.832;2023-09-08T01:10:03;15.90;;;8.75;;
77451;SDS011;66537;52.370;4.832;2023-09-08T01:12:31;17.13;;;8.63;;
77451;SDS011;66537;52.370;4.832;2023-09-08T01:14:57;15.27;;;8.73;;
77451;SDS011;66537;52.370;4.832;2023-09-08T01:17:22;17.63;;;8.95;;
77451;SDS011;66537;52.370;4.832;2023-09-08T01:19:48;15.13;;;8.68;;
77451;SDS011;66537;52.370;4.832;2023-09-08T01:27:47;15.68;;;8.52;;
77451;SDS011;66537;52.370;4.832;2023-09-08T01:30:15;17.13;;;9.93;;
77451;SDS011;66537;52.370;4.832;2023-09-08T01:32:41;14.50;;;8.32;;
77451;SDS011;66537;52.370;4.832;2023-09-08T01:35:07;16.02;;;8.45;;
77451;SDS011;66537;52.370;4.832;2023-09-08T01:37:33;15.13;;;8.52;;
77451;SDS011;66537;52.370;4.832;2023-09-08T01:39:59;16.25;;;8.68;;
77451;SDS011;66537;52.370;4.832;2023-09-08T01:42:24;14.48;;;7.85;;
77451;SDS011;66537;52.370;4.832;2023-09-08T01:44:49;13.70;;;8.02;;
77451;SDS011;66537;52.370;4.832;2023-09-08T01:47:15;18.37;;;10.27;;
77451;SDS011;66537;52.370;4.832;2023-09-08T01:49:41;16.75;;;8.85;;
77451;SDS011;66537;52.370;4.832;2023-09-08T01:52:06;16.53;;;9.27;;
77451;SDS011;66537;52.370;4.832;2023-09-08T01:54:31;17.52;;;9.07;;
77451;SDS011;66537;52.370;4.832;2023-09-08T01:56:57;15.63;;;9.18;;
77451;SDS011;66537;52.370;4.832;2023-09-08T01:59:25;19.77;;;9.80;;
77451;SDS011;66537;52.370;4.832;2023-09-08T02:01:51;16.05;;;8.70;;
77451;SDS011;66537;52.370;4.832;2023-09-08T02:04:16;15.65;;;10.18;;
77451;SDS011;66537;52.370;4.832;2023-09-08T02:06:41;19.13;;;9.98;;
77451;SDS011;66537;52.370;4.832;2023-09-08T02:09:07;17.83;;;8.93;;
77451;SDS011;66537;52.370;4.832;2023-09-08T02:11:34;18.35;;;10.95;;
77451;SDS011;66537;52.370;4.832;2023-09-08T02:13:59;15.48;;;9.40;;
77451;SDS011;66537;52.370;4.832;2023-09-08T02:16:25;18.83;;;10.37;;
77451;SDS011;66537;52.370;4.832;2023-09-08T02:18:50;16.00;;;9.15;;
77451;SDS011;66537;52.370;4.832;2023-09-08T02:21:16;18.40;;;10.18;;
77451;SDS011;66537;52.370;4.832;2023-09-08T02:23:41;15.10;;;8.75;;
77451;SDS011;66537;52.370;4.832;2023-09-08T02:26:06;17.90;;;10.05;;
77451;SDS011;66537;52.370;4.832;2023-09-08T02:28:32;16.67;;;9.70;;
77451;SDS011;66537;52.370;4.832;2023-09-08T02:30:57;17.50;;;9.93;;
77451;SDS011;66537;52.370;4.832;2023-09-08T02:33:22;16.27;;;9.00;;
77451;SDS011;66537;52.370;4.832;2023-09-08T02:35:48;19.08;;;10.48;;
77451;SDS011;66537;52.370;4.832;2023-09-08T02:38:13;17.53;;;10.87;;
77451;SDS011;66537;52.370;4.832;2023-09-08T02:40:38;18.58;;;10.70;;
77451;SDS011;66537;52.370;4.832;2023-09-08T02:43:04;18.07;;;10.27;;
77451;SDS011;66537;52.370;4.832;2023-09-08T02:45:29;22.63;;;12.55;;
77451;SDS011;66537;52.370;4.832;2023-09-08T02:47:55;20.77;;;8.82;;
77451;SDS011;66537;52.370;4.832;2023-09-08T02:50:21;18.92;;;10.07;;
77451;SDS011;66537;52.370;4.832;2023-09-08T02:52:46;17.83;;;10.25;;
77451;SDS011;66537;52.370;4.832;2023-09-08T02:55:12;15.02;;;9.27;;
77451;SDS011;66537;52.370;4.832;2023-09-08T02:57:38;18.38;;;10.07;;
77451;SDS011;66537;52.370;4.832;2023-09-08T03:00:04;15.52;;;9.65;;
77451;SDS011;66537;52.370;4.832;2023-09-08T03:02:31;17.75;;;10.68;;
77451;SDS011;66537;52.370;4.832;2023-09-08T03:04:57;18.42;;;10.93;;
77451;SDS011;66537;52.370;4.832;2023-09-08T03:07:22;15.95;;;10.15;;
77451;SDS011;66537;52.370;4.832;2023-09-08T03:09:48;17.27;;;10.20;;
77451;SDS011;66537;52.370;4.832;2023-09-08T03:12:13;20.17;;;10.80;;
77451;SDS011;66537;52.370;4.832;2023-09-08T03:14:38;19.35;;;11.13;;
77451;SDS011;66537;52.370;4.832;2023-09-08T03:17:04;19.98;;;11.55;;
77451;SDS011;66537;52.370;4.832;2023-09-08T03:19:29;19.17;;;11.63;;
77451;SDS011;66537;52.370;4.832;2023-09-08T03:21:55;17.73;;;10.38;;
77451;SDS011;66537;52.370;4.832;2023-09-08T03:24:20;19.43;;;11.50;;
77451;SDS011;66537;52.370;4.832;2023-09-08T03:26:45;22.38;;;11.98;;
77451;SDS011;66537;52.370;4.832;2023-09-08T03:29:11;20.67;;;11.90;;
77451;SDS011;66537;52.370;4.832;2023-09-08T03:31:36;19.75;;;11.38;;
77451;SDS011;66537;52.370;4.832;2023-09-08T03:34:01;19.42;;;11.48;;
77451;SDS011;66537;52.370;4.832;2023-09-08T03:36:27;17.55;;;10.32;;
77451;SDS011;66537;52.370;4.832;2023-09-08T03:38:52;23.17;;;10.40;;
77451;SDS011;66537;52.370;4.832;2023-09-08T03:41:18;20.08;;;11.68;;
77451;SDS011;66537;52.370;4.832;2023-09-08T03:43:43;24.42;;;13.40;;
77451;SDS011;66537;52.370;4.832;2023-09-08T03:46:09;21.63;;;11.57;;
77451;SDS011;66537;52.370;4.832;2023-09-08T03:48:34;20.35;;;12.10;;
77451;SDS011;66537;52.370;4.832;2023-09-08T03:50:59;18.00;;;11.10;;
77451;SDS011;66537;52.370;4.832;2023-09-08T03:53:25;27.17;;;14.13;;
77451;SDS011;66537;52.370;4.832;2023-09-08T03:55:50;22.95;;;12.77;;
77451;SDS011;66537;52.370;4.832;2023-09-08T03:58:16;22.45;;;12.30;;
77451;SDS011;66537;52.370;4.832;2023-09-08T04:00:41;19.20;;;11.07;;
77451;SDS011;66537;52.370;4.832;2023-09-08T04:03:07;23.23;;;11.82;;
77451;SDS011;66537;52.370;4.832;2023-09-08T04:05:33;19.50;;;12.20;;
77451;SDS011;66537;52.370;4.832;2023-09-08T04:07:58;21.38;;;11.88;;
77451;SDS011;66537;52.370;4.832;2023-09-08T04:10:24;17.58;;;10.90;;
77451;SDS011;66537;52.370;4.832;2023-09-08T04:12:50;21.25;;;12.10;;
77451;SDS011;66537;52.370;4.832;2023-09-08T04:15:15;21.15;;;11.15;;
77451;SDS011;66537;52.370;4.832;2023-09-08T04:17:41;20.13;;;11.10;;
77451;SDS011;66537;52.370;4.832;2023-09-08T04:20:06;18.58;;;10.75;;
77451;SDS011;66537;52.370;4.832;2023-09-08T04:22:33;20.40;;;11.73;;
77451;SDS011;66537;52.370;4.832;2023-09-08T04:24:58;21.30;;;12.35;;
77451;SDS011;66537;52.370;4.832;2023-09-08T04:27:24;19.25;;;11.15;;
77451;SDS011;66537;52.370;4.832;2023-09-08T04:29:49;19.45;;;11.35;;
77451;SDS011;66537;52.370;4.832;2023-09-08T04:32:15;21.45;;;12.18;;
77451;SDS011;66537;52.370;4.832;2023-09-08T04:34:41;18.33;;;10.43;;
77451;SDS011;66537;52.370;4.832;2023-09-08T04:37:07;20.75;;;11.70;;
77451;SDS011;66537;52.370;4.832;2023-09-08T04:39:33;16.77;;;9.75;;
77451;SDS011;66537;52.370;4.832;2023-09-08T04:41:59;19.15;;;11.27;;
77451;SDS011;66537;52.370;4.832;2023-09-08T04:44:24;20.25;;;11.80;;
77451;SDS011;66537;52.370;4.832;2023-09-08T04:46:51;22.55;;;12.30;;
77451;SDS011;66537;52.370;4.832;2023-09-08T04:49:19;20.10;;;10.93;;
77451;SDS011;66537;52.370;4.832;2023-09-08T04:51:44;20.02;;;12.07;;
77451;SDS011;66537;52.370;4.832;2023-09-08T04:54:10;20.33;;;11.23;;
77451;SDS011;66537;52.370;4.832;2023-09-08T04:56:35;20.10;;;11.00;;
77451;SDS011;66537;52.370;4.832;2023-09-08T04:59:01;19.95;;;11.50;;
77451;SDS011;66537;52.370;4.832;2023-09-08T05:01:26;19.85;;;11.23;;
77451;SDS011;66537;52.370;4.832;2023-09-08T05:03:52;17.98;;;10.93;;
77451;SDS011;66537;52.370;4.832;2023-09-08T05:06:17;19.70;;;11.07;;
77451;SDS011;66537;52.370;4.832;2023-09-08T05:08:43;22.60;;;12.38;;
77451;SDS011;66537;52.370;4.832;2023-09-08T05:11:09;19.88;;;11.95;;
77451;SDS011;66537;52.370;4.832;2023-09-08T05:13:35;21.55;;;11.50;;
77451;SDS011;66537;52.370;4.832;2023-09-08T05:16:00;22.98;;;12.25;;
77451;SDS011;66537;52.370;4.832;2023-09-08T05:18:36;22.85;;;12.45;;
77451;SDS011;66537;52.370;4.832;2023-09-08T05:21:02;23.00;;;12.55;;
77451;SDS011;66537;52.370;4.832;2023-09-08T05:23:27;23.57;;;13.57;;
77451;SDS011;66537;52.370;4.832;2023-09-08T05:25:53;21.80;;;12.65;;
77451;SDS011;66537;52.370;4.832;2023-09-08T05:28:19;21.50;;;13.23;;
77451;SDS011;66537;52.370;4.832;2023-09-08T05:30:44;25.08;;;13.20;;
77451;SDS011;66537;52.370;4.832;2023-09-08T05:33:09;21.63;;;11.20;;
77451;SDS011;66537;52.370;4.832;2023-09-08T05:35:35;24.63;;;14.35;;
77451;SDS011;66537;52.370;4.832;2023-09-08T05:38:01;21.42;;;12.30;;
77451;SDS011;66537;52.370;4.832;2023-09-08T05:40:27;23.65;;;12.65;;
77451;SDS011;66537;52.370;4.832;2023-09-08T05:42:52;24.17;;;12.77;;
77451;SDS011;66537;52.370;4.832;2023-09-08T05:45:18;24.17;;;14.18;;
77451;SDS011;66537;52.370;4.832;2023-09-08T05:47:44;22.23;;;13.27;;
77451;SDS011;66537;52.370;4.832;2023-09-08T05:50:09;23.27;;;14.02;;
77451;SDS011;66537;52.370;4.832;2023-09-08T05:52:35;28.50;;;15.10;;
77451;SDS011;66537;52.370;4.832;2023-09-08T05:55:01;25.77;;;14.38;;
77451;SDS011;66537;52.370;4.832;2023-09-08T05:57:26;25.60;;;14.88;;
77451;SDS011;66537;52.370;4.832;2023-09-08T05:59:52;23.30;;;14.65;;
77451;SDS011;66537;52.370;4.832;2023-09-08T06:02:17;26.30;;;15.18;;
77451;SDS011;66537;52.370;4.832;2023-09-08T06:04:42;25.90;;;14.57;;
77451;SDS011;66537;52.370;4.832;2023-09-08T06:07:08;26.20;;;16.27;;
77451;SDS011;66537;52.370;4.832;2023-09-08T06:09:33;24.30;;;15.02;;
77451;SDS011;66537;52.370;4.832;2023-09-08T06:11:58;29.13;;;16.13;;
77451;SDS011;66537;52.370;4.832;2023-09-08T06:14:24;27.83;;;15.50;;
77451;SDS011;66537;52.370;4.832;2023-09-08T06:16:49;28.45;;;15.38;;
77451;SDS011;66537;52.370;4.832;2023-09-08T06:19:14;27.05;;;15.57;;
77451;SDS011;66537;52.370;4.832;2023-09-08T06:21:40;25.80;;;15.40;;
77451;SDS011;66537;52.370;4.832;2023-09-08T06:24:05;33.00;;;16.73;;
77451;SDS011;66537;52.370;4.832;2023-09-08T06:26:31;29.23;;;16.67;;
77451;SDS011;66537;52.370;4.832;2023-09-08T06:28:56;30.67;;;17.50;;
77451;SDS011;66537;52.370;4.832;2023-09-08T06:31:22;31.40;;;16.35;;
77451;SDS011;66537;52.370;4.832;2023-09-08T06:33:47;31.33;;;16.90;;
77451;SDS011;66537;52.370;4.832;2023-09-08T06:36:16;29.35;;;17.67;;
77451;SDS011;66537;52.370;4.832;2023-09-08T06:38:42;28.52;;;17.33;;
77451;SDS011;66537;52.370;4.832;2023-09-08T06:41:08;28.03;;;16.97;;
77451;SDS011;66537;52.370;4.832;2023-09-08T06:43:35;31.40;;;17.20;;
77451;SDS011;66537;52.370;4.832;2023-09-08T06:46:00;30.10;;;17.48;;
77451;SDS011;66537;52.370;4.832;2023-09-08T06:48:26;30.25;;;18.08;;
77451;SDS011;66537;52.370;4.832;2023-09-08T06:50:55;31.83;;;18.23;;
77451;SDS011;66537;52.370;4.832;2023-09-08T06:53:21;30.88;;;17.83;;
77451;SDS011;66537;52.370;4.832;2023-09-08T06:55:47;31.83;;;18.42;;
77451;SDS011;66537;52.370;4.832;2023-09-08T06:58:12;32.90;;;16.58;;
77451;SDS011;66537;52.370;4.832;2023-09-08T07:00:39;29.23;;;17.05;;
77451;SDS011;66537;52.370;4.832;2023-09-08T07:03:05;27.77;;;17.10;;
77451;SDS011;66537;52.370;4.832;2023-09-08T07:05:30;30.15;;;17.48;;
77451;SDS011;66537;52.370;4.832;2023-09-08T07:07:56;30.73;;;15.18;;
77451;SDS011;66537;52.370;4.832;2023-09-08T07:10:21;28.08;;;16.38;;
77451;SDS011;66537;52.370;4.832;2023-09-08T07:12:46;27.23;;;15.13;;
77451;SDS011;66537;52.370;4.832;2023-09-08T07:15:14;33.72;;;17.75;;
77451;SDS011;66537;52.370;4.832;2023-09-08T07:17:39;29.73;;;16.73;;
77451;SDS011;66537;52.370;4.832;2023-09-08T07:20:05;30.35;;;17.10;;
77451;SDS011;66537;52.370;4.832;2023-09-08T07:22:31;29.77;;;16.52;;
77451;SDS011;66537;52.370;4.832;2023-09-08T07:24:57;28.75;;;16.02;;
77451;SDS011;66537;52.370;4.832;2023-09-08T07:27:22;30.88;;;17.60;;
77451;SDS011;66537;52.370;4.832;2023-09-08T07:29:47;29.20;;;16.27;;
77451;SDS011;66537;52.370;4.832;2023-09-08T07:32:14;31.08;;;15.60;;
77451;SDS011;66537;52.370;4.832;2023-09-08T07:34:40;29.60;;;17.65;;
77451;SDS011;66537;52.370;4.832;2023-09-08T07:37:05;29.08;;;16.60;;
77451;SDS011;66537;52.370;4.832;2023-09-08T07:39:31;28.15;;;15.82;;
77451;SDS011;66537;52.370;4.832;2023-09-08T07:41:57;25.42;;;15.95;;
77451;SDS011;66537;52.370;4.832;2023-09-08T07:44:23;27.55;;;16.60;;
77451;SDS011;66537;52.370;4.832;2023-09-08T07:46:48;31.33;;;18.63;;
77451;SDS011;66537;52.370;4.832;2023-09-08T07:49:16;30.63;;;17.50;;
77451;SDS011;66537;52.370;4.832;2023-09-08T07:51:44;25.52;;;16.15;;
77451;SDS011;66537;52.370;4.832;2023-09-08T07:54:09;25.88;;;15.75;;
77451;SDS011;66537;52.370;4.832;2023-09-08T07:56:35;24.27;;;14.65;;
77451;SDS011;66537;52.370;4.832;2023-09-08T07:59:00;28.38;;;17.38;;
77451;SDS011;66537;52.370;4.832;2023-09-08T08:01:25;25.95;;;16.65;;
77451;SDS011;66537;52.370;4.832;2023-09-08T08:03:51;32.28;;;17.75;;
77451;SDS011;66537;52.370;4.832;2023-09-08T08:06:16;27.20;;;16.17;;
77451;SDS011;66537;52.370;4.832;2023-09-08T08:08:42;24.20;;;16.10;;
77451;SDS011;66537;52.370;4.832;2023-09-08T08:11:14;28.38;;;17.52;;
77451;SDS011;66537;52.370;4.832;2023-09-08T08:13:42;31.98;;;18.95;;
77451;SDS011;66537;52.370;4.832;2023-09-08T08:16:08;42.67;;;19.30;;
77451;SDS011;66537;52.370;4.832;2023-09-08T08:18:33;27.20;;;18.33;;
77451;SDS011;66537;52.370;4.832;2023-09-08T08:20:59;33.03;;;19.25;;
77451;SDS011;66537;52.370;4.832;2023-09-08T08:23:25;31.08;;;17.75;;
77451;SDS011;66537;52.370;4.832;2023-09-08T08:25:51;33.88;;;19.52;;
77451;SDS011;66537;52.370;4.832;2023-09-08T08:28:16;27.05;;;17.83;;
77451;SDS011;66537;52.370;4.832;2023-09-08T08:30:42;26.45;;;17.60;;
77451;SDS011;66537;52.370;4.832;2023-09-08T08:33:07;28.73;;;17.67;;
77451;SDS011;66537;52.370;4.832;2023-09-08T08:35:33;30.33;;;18.95;;
77451;SDS011;66537;52.370;4.832;2023-09-08T08:37:58;34.97;;;19.85;;
77451;SDS011;66537;52.370;4.832;2023-09-08T08:40:25;32.63;;;19.50;;
77451;SDS011;66537;52.370;4.832;2023-09-08T08:42:54;29.20;;;17.05;;
77451;SDS011;66537;52.370;4.832;2023-09-08T08:45:22;27.48;;;17.35;;
77451;SDS011;66537;52.370;4.832;2023-09-08T08:47:50;26.35;;;16.73;;
77451;SDS011;66537;52.370;4.832;2023-09-08T08:50:17;25.98;;;16.02;;
77451;SDS011;66537;52.370;4.832;2023-09-08T08:52:43;28.20;;;16.45;;
77451;SDS011;66537;52.370;4.832;2023-09-08T08:55:09;23.73;;;14.93;;
77451;SDS011;66537;52.370;4.832;2023-09-08T08:57:38;45.03;;;17.38;;
77451;SDS011;66537;52.370;4.832;2023-09-08T09:00:08;24.30;;;15.75;;
77451;SDS011;66537;52.370;4.832;2023-09-08T09:02:37;23.73;;;15.63;;
77451;SDS011;66537;52.370;4.832;2023-09-08T09:05:05;23.92;;;16.00;;
77451;SDS011;66537;52.370;4.832;2023-09-08T09:07:32;23.75;;;14.50;;
77451;SDS011;66537;52.370;4.832;2023-09-08T09:09:58;23.25;;;15.23;;
77451;SDS011;66537;52.370;4.832;2023-09-08T09:12:23;26.52;;;16.42;;
77451;SDS011;66537;52.370;4.832;2023-09-08T09:14:52;25.42;;;16.98;;
77451;SDS011;66537;52.370;4.832;2023-09-08T09:17:18;27.90;;;16.58;;
77451;SDS011;66537;52.370;4.832;2023-09-08T09:19:44;25.55;;;15.57;;
77451;SDS011;66537;52.370;4.832;2023-09-08T09:22:09;66.95;;;19.80;;
77451;SDS011;66537;52.370;4.832;2023-09-08T09:24:35;27.27;;;16.58;;
77451;SDS011;66537;52.370;4.832;2023-09-08T09:27:05;28.98;;;16.42;;
77451;SDS011;66537;52.370;4.832;2023-09-08T09:29:32;28.20;;;15.38;;
77451;SDS011;66537;52.370;4.832;2023-09-08T09:32:07;27.45;;;17.35;;
77451;SDS011;66537;52.370;4.832;2023-09-08T09:34:35;26.90;;;16.85;;
77451;SDS011;66537;52.370;4.832;2023-09-08T09:37:01;29.52;;;18.92;;
77451;SDS011;66537;52.370;4.832;2023-09-08T09:39:30;26.98;;;17.92;;
77451;SDS011;66537;52.370;4.832;2023-09-08T09:41:56;31.00;;;21.00;;
77451;SDS011;66537;52.370;4.832;2023-09-08T09:44:23;35.92;;;22.20;;
77451;SDS011;66537;52.370;4.832;2023-09-08T09:46:51;34.30;;;19.52;;
77451;SDS011;66537;52.370;4.832;2023-09-08T09:49:17;26.60;;;17.83;;
77451;SDS011;66537;52.370;4.832;2023-09-08T09:51:44;29.15;;;18.63;;
77451;SDS011;66537;52.370;4.832;2023-09-08T09:54:11;32.65;;;20.63;;
77451;SDS011;66537;52.370;4.832;2023-09-08T09:56:37;31.15;;;19.00;;
77451;SDS011;66537;52.370;4.832;2023-09-08T09:59:03;33.33;;;21.23;;
77451;SDS011;66537;52.370;4.832;2023-09-08T10:01:29;31.52;;;20.08;;
77451;SDS011;66537;52.370;4.832;2023-09-08T10:03:56;28.00;;;19.98;;
77451;SDS011;66537;52.370;4.832;2023-09-08T10:06:22;27.25;;;19.10;;
77451;SDS011;66537;52.370;4.832;2023-09-08T10:08:48;34.58;;;19.73;;
77451;SDS011;66537;52.370;4.832;2023-09-08T10:11:16;27.50;;;16.98;;
77451;SDS011;66537;52.370;4.832;2023-09-08T10:13:46;29.20;;;18.13;;
77451;SDS011;66537;52.370;4.832;2023-09-08T10:16:19;35.05;;;18.73;;
77451;SDS011;66537;52.370;4.832;2023-09-08T10:18:46;27.95;;;19.55;;
77451;SDS011;66537;52.370;4.832;2023-09-08T10:21:14;26.02;;;17.02;;
77451;SDS011;66537;52.370;4.832;2023-09-08T10:23:42;27.98;;;16.42;;
77451;SDS011;66537;52.370;4.832;2023-09-08T10:26:12;22.27;;;15.02;;
77451;SDS011;66537;52.370;4.832;2023-09-08T10:28:50;22.38;;;14.65;;
77451;SDS011;66537;52.370;4.832;2023-09-08T10:31:16;43.08;;;16.63;;
77451;SDS011;66537;52.370;4.832;2023-09-08T10:33:42;26.75;;;14.50;;
77451;SDS011;66537;52.370;4.832;2023-09-08T10:36:08;23.08;;;14.63;;
77451;SDS011;66537;52.370;4.832;2023-09-08T10:38:34;20.35;;;12.70;;
77451;SDS011;66537;52.370;4.832;2023-09-08T10:46:28;24.45;;;14.48;;
77451;SDS011;66537;52.370;4.832;2023-09-08T10:49:00;26.23;;;16.58;;
77451;SDS011;66537;52.370;4.832;2023-09-08T10:51:28;27.48;;;16.83;;
77451;SDS011;66537;52.370;4.832;2023-09-08T10:53:54;28.95;;;16.45;;
77451;SDS011;66537;52.370;4.832;2023-09-08T10:56:19;24.88;;;16.02;;
77451;SDS011;66537;52.370;4.832;2023-09-08T10:58:48;27.45;;;14.70;;
77451;SDS011;66537;52.370;4.832;2023-09-08T11:01:16;22.85;;;14.60;;
77451;SDS011;66537;52.370;4.832;2023-09-08T11:03:44;27.55;;;15.98;;
77451;SDS011;66537;52.370;4.832;2023-09-08T11:06:12;26.70;;;15.30;;
77451;SDS011;66537;52.370;4.832;2023-09-08T11:08:37;27.83;;;17.10;;
77451;SDS011;66537;52.370;4.832;2023-09-08T11:11:06;29.73;;;15.77;;
77451;SDS011;66537;52.370;4.832;2023-09-08T11:13:31;22.55;;;12.88;;
77451;SDS011;66537;52.370;4.832;2023-09-08T11:15:57;26.13;;;13.87;;
77451;SDS011;66537;52.370;4.832;2023-09-08T11:18:25;21.17;;;13.27;;
77451;SDS011;66537;52.370;4.832;2023-09-08T11:21:01;19.55;;;13.85;;
77451;SDS011;66537;52.370;4.832;2023-09-08T11:23:28;22.80;;;14.45;;
77451;SDS011;66537;52.370;4.832;2023-09-08T11:25:53;22.83;;;14.57;;
77451;SDS011;66537;52.370;4.832;2023-09-08T11:28:23;27.95;;;15.38;;
77451;SDS011;66537;52.370;4.832;2023-09-08T11:30:49;22.92;;;14.00;;
77451;SDS011;66537;52.370;4.832;2023-09-08T11:33:15;28.73;;;15.20;;
77451;SDS011;66537;52.370;4.832;2023-09-08T11:35:42;24.33;;;15.20;;
77451;SDS011;66537;52.370;4.832;2023-09-08T11:38:10;21.30;;;14.55;;
77451;SDS011;66537;52.370;4.832;2023-09-08T11:40:36;21.90;;;14.75;;
77451;SDS011;66537;52.370;4.832;2023-09-08T11:43:02;22.77;;;12.48;;
77451;SDS011;66537;52.370;4.832;2023-09-08T11:45:28;25.33;;;16.15;;
77451;SDS011;66537;52.370;4.832;2023-09-08T11:47:55;28.20;;;14.70;;
77451;SDS011;66537;52.370;4.832;2023-09-08T11:50:22;22.25;;;13.27;;
77451;SDS011;66537;52.370;4.832;2023-09-08T11:52:49;26.80;;;15.25;;
77451;SDS011;66537;52.370;4.832;2023-09-08T11:55:16;22.15;;;15.13;;
77451;SDS011;66537;52.370;4.832;2023-09-08T11:57:44;26.75;;;16.85;;
77451;SDS011;66537;52.370;4.832;2023-09-08T12:00:19;25.35;;;13.95;;
77451;SDS011;66537;52.370;4.832;2023-09-08T12:02:47;23.50;;;15.25;;
77451;SDS011;66537;52.370;4.832;2023-09-08T12:05:23;24.88;;;15.18;;
77451;SDS011;66537;52.370;4.832;2023-09-08T12:07:50;26.52;;;14.75;;
77451;SDS011;66537;52.370;4.832;2023-09-08T12:10:17;20.63;;;13.88;;
77451;SDS011;66537;52.370;4.832;2023-09-08T12:12:46;28.20;;;12.45;;
77451;SDS011;66537;52.370;4.832;2023-09-08T12:15:28;22.63;;;11.93;;
77451;SDS011;66537;52.370;4.832;2023-09-08T12:18:04;24.70;;;14.73;;
77451;SDS011;66537;52.370;4.832;2023-09-08T12:20:35;23.83;;;15.23;;
77451;SDS011;66537;52.370;4.832;2023-09-08T12:23:02;20.88;;;13.38;;
77451;SDS011;66537;52.370;4.832;2023-09-08T12:25:28;18.63;;;11.88;;
77451;SDS011;66537;52.370;4.832;2023-09-08T12:27:57;23.95;;;13.40;;
77451;SDS011;66537;52.370;4.832;2023-09-08T12:30:23;23.90;;;14.52;;
77451;SDS011;66537;52.370;4.832;2023-09-08T12:32:57;22.42;;;11.93;;
77451;SDS011;66537;52.370;4.832;2023-09-08T12:35:23;19.45;;;12.65;;
77451;SDS011;66537;52.370;4.832;2023-09-08T12:37:59;25.25;;;13.32;;
77451;SDS011;66537;52.370;4.832;2023-09-08T12:40:26;18.75;;;11.98;;
77451;SDS011;66537;52.370;4.832;2023-09-08T12:42:52;20.70;;;12.25;;
77451;SDS011;66537;52.370;4.832;2023-09-08T12:45:18;18.95;;;10.48;;
77451;SDS011;66537;52.370;4.832;2023-09-08T12:47:45;17.98;;;10.07;;
77451;SDS011;66537;52.370;4.832;2023-09-08T12:50:10;24.48;;;15.77;;
77451;SDS011;66537;52.370;4.832;2023-09-08T12:52:38;31.55;;;16.83;;
77451;SDS011;66537;52.370;4.832;2023-09-08T12:55:03;23.08;;;14.93;;
77451;SDS011;66537;52.370;4.832;2023-09-08T12:57:29;30.35;;;16.65;;
77451;SDS011;66537;52.370;4.832;2023-09-08T12:59:55;28.15;;;15.80;;
77451;SDS011;66537;52.370;4.832;2023-09-08T13:02:21;25.30;;;16.08;;
77451;SDS011;66537;52.370;4.832;2023-09-08T13:04:46;24.92;;;15.27;;
77451;SDS011;66537;52.370;4.832;2023-09-08T13:07:15;19.85;;;14.27;;
77451;SDS011;66537;52.370;4.832;2023-09-08T13:09:41;25.80;;;14.65;;
77451;SDS011;66537;52.370;4.832;2023-09-08T13:12:06;18.90;;;11.20;;
77451;SDS011;66537;52.370;4.832;2023-09-08T13:14:33;18.13;;;9.27;;
77451;SDS011;66537;52.370;4.832;2023-09-08T13:17:00;19.40;;;9.55;;
77451;SDS011;66537;52.370;4.832;2023-09-08T13:19:25;15.63;;;9.63;;
77451;SDS011;66537;52.370;4.832;2023-09-08T13:21:51;24.50;;;11.50;;
77451;SDS011;66537;52.370;4.832;2023-09-08T13:24:16;15.30;;;8.47;;
77451;SDS011;66537;52.370;4.832;2023-09-08T13:26:41;15.23;;;7.00;;
77451;SDS011;66537;52.370;4.832;2023-09-08T13:29:07;13.75;;;8.40;;
77451;SDS011;66537;52.370;4.832;2023-09-08T13:31:32;16.75;;;8.50;;
77451;SDS011;66537;52.370;4.832;2023-09-08T13:33:57;14.07;;;7.88;;
77451;SDS011;66537;52.370;4.832;2023-09-08T13:36:23;14.90;;;7.43;;
77451;SDS011;66537;52.370;4.832;2023-09-08T13:38:48;15.25;;;9.82;;
77451;SDS011;66537;52.370;4.832;2023-09-08T13:41:13;15.70;;;9.23;;
77451;SDS011;66537;52.370;4.832;2023-09-08T13:43:39;17.08;;;10.63;;
77451;SDS011;66537;52.370;4.832;2023-09-08T13:46:04;19.87;;;10.93;;
77451;SDS011;66537;52.370;4.832;2023-09-08T13:48:29;23.83;;;11.38;;
77451;SDS011;66537;52.370;4.832;2023-09-08T13:50:55;21.98;;;13.57;;
77451;SDS011;66537;52.370;4.832;2023-09-08T13:53:21;22.20;;;12.23;;
77451;SDS011;66537;52.370;4.832;2023-09-08T13:55:47;21.58;;;13.27;;
77451;SDS011;66537;52.370;4.832;2023-09-08T13:58:13;20.98;;;13.13;;
77451;SDS011;66537;52.370;4.832;2023-09-08T14:00:38;21.60;;;13.50;;
77451;SDS011;66537;52.370;4.832;2023-09-08T14:03:04;20.77;;;13.10;;
77451;SDS011;66537;52.370;4.832;2023-09-08T14:05:29;18.98;;;11.13;;
77451;SDS011;66537;52.370;4.832;2023-09-08T14:07:55;22.30;;;13.77;;
77451;SDS011;66537;52.370;4.832;2023-09-08T14:10:20;22.95;;;14.45;;
77451;SDS011;66537;52.370;4.832;2023-09-08T14:12:45;19.17;;;12.93;;
77451;SDS011;66537;52.370;4.832;2023-09-08T14:15:11;21.15;;;13.38;;
77451;SDS011;66537;52.370;4.832;2023-09-08T14:20:05;20.20;;;12.43;;
77451;SDS011;66537;52.370;4.832;2023-09-08T14:22:32;22.50;;;14.23;;
77451;SDS011;66537;52.370;4.832;2023-09-08T14:24:58;23.27;;;14.05;;
77451;SDS011;66537;52.370;4.832;2023-09-08T14:27:23;22.35;;;14.27;;
77451;SDS011;66537;52.370;4.832;2023-09-08T14:29:48;26.17;;;13.80;;
77451;SDS011;66537;52.370;4.832;2023-09-08T14:32:14;23.67;;;15.77;;